sensor_id;sensor_type;location;lat;lon;timestamp;P1;durP1;ratioP1;P2;durP2;ratioP2
15637;SDS011;26604;53.596;10.042;2022-07-29T00:01:37;1.60;;;1.00;;
15637;SDS011;26604;53.596;10.042;2022-07-29T00:04:04;3.88;;;1.00;;
15637;SDS011;26604;53.596;10.042;2022-07-29T00:06:31;1.80;;;1.10;;
15637;SDS011;26604;53.596;10.042;2022-07-29T00:08:57;2.53;;;1.00;;
15637;SDS011;26604;53.596;10.042;2022-07-29T00:11:24;2.22;;;1.00;;
15637;SDS011;26604;53.596;10.042;2022-07-29T00:13:51;2.97;;;1.10;;
15637;SDS011;26604;53.596;10.042;2022-07-29T00:16:19;7.30;;;1.02;;
15637;SDS011;26604;53.596;10.042;2022-07-29T00:18:47;2.30;;;1.00;;
15637;SDS011;26604;53.596;10.042;2022-07-29T00:21:13;2.30;;;1.17;;
15637;SDS011;26604;53.596;10.042;2022-07-29T00:23:40;2.42;;;1.00;;
15637;SDS011;26604;53.596;10.042;2022-07-29T00:26:07;3.38;;;1.00;;
15637;SDS011;26604;53.596;10.042;2022-07-29T00:28:34;2.30;;;1.17;;
15637;SDS011;26604;53.596;10.042;2022-07-29T00:31:01;1.33;;;0.85;;
15637;SDS011;26604;53.596;10.042;2022-07-29T00:33:29;1.63;;;0.90;;
15637;SDS011;26604;53.596;10.042;2022-07-29T00:35:56;2.08;;;0.77;;
15637;SDS011;26604;53.596;10.042;2022-07-29T00:38:22;1.50;;;0.90;;
15637;SDS011;26604;53.596;10.042;2022-07-29T00:40:49;2.17;;;1.00;;
15637;SDS011;26604;53.596;10.042;2022-07-29T00:43:16;1.25;;;0.80;;
15637;SDS011;26604;53.596;10.042;2022-07-29T00:45:43;1.30;;;0.85;;
15637;SDS011;26604;53.596;10.042;2022-07-29T00:48:10;2.33;;;1.17;;
15637;SDS011;26604;53.596;10.042;2022-07-29T00:50:38;1.65;;;0.90;;
15637;SDS011;26604;53.596;10.042;2022-07-29T00:53:06;2.78;;;0.90;;
15637;SDS011;26604;53.596;10.042;2022-07-29T00:55:34;1.53;;;0.80;;
15637;SDS011;26604;53.596;10.042;2022-07-29T00:58:01;1.83;;;0.90;;
15637;SDS011;26604;53.596;10.042;2022-07-29T01:00:28;1.35;;;0.90;;
15637;SDS011;26604;53.596;10.042;2022-07-29T01:02:56;3.33;;;1.08;;
15637;SDS011;26604;53.596;10.042;2022-07-29T01:05:23;1.40;;;0.80;;
15637;SDS011;26604;53.596;10.042;2022-07-29T01:07:53;1.67;;;0.85;;
15637;SDS011;26604;53.596;10.042;2022-07-29T01:10:21;1.90;;;1.05;;
15637;SDS011;26604;53.596;10.042;2022-07-29T01:12:50;1.60;;;0.93;;
15637;SDS011;26604;53.596;10.042;2022-07-29T01:15:18;1.75;;;0.90;;
15637;SDS011;26604;53.596;10.042;2022-07-29T01:17:46;2.20;;;0.90;;
15637;SDS011;26604;53.596;10.042;2022-07-29T01:20:20;1.52;;;0.70;;
15637;SDS011;26604;53.596;10.042;2022-07-29T01:23:05;2.67;;;1.00;;
15637;SDS011;26604;53.596;10.042;2022-07-29T01:25:45;1.92;;;0.73;;
15637;SDS011;26604;53.596;10.042;2022-07-29T01:28:47;1.42;;;0.93;;
15637;SDS011;26604;53.596;10.042;2022-07-29T01:31:24;1.45;;;0.85;;
15637;SDS011;26604;53.596;10.042;2022-07-29T01:33:57;1.35;;;0.90;;
15637;SDS011;26604;53.596;10.042;2022-07-29T01:36:30;1.13;;;0.70;;
15637;SDS011;26604;53.596;10.042;2022-07-29T01:39:02;1.20;;;0.88;;
15637;SDS011;26604;53.596;10.042;2022-07-29T01:41:35;1.25;;;0.80;;
15637;SDS011;26604;53.596;10.042;2022-07-29T01:44:09;1.05;;;0.60;;
15637;SDS011;26604;53.596;10.042;2022-07-29T01:46:41;2.00;;;1.05;;
15637;SDS011;26604;53.596;10.042;2022-07-29T01:49:13;1.45;;;0.85;;
15637;SDS011;26604;53.596;10.042;2022-07-29T01:51:45;1.40;;;1.00;;
15637;SDS011;26604;53.596;10.042;2022-07-29T01:54:16;2.13;;;1.08;;
15637;SDS011;26604;53.596;10.042;2022-07-29T01:56:48;1.33;;;0.95;;
15637;SDS011;26604;53.596;10.042;2022-07-29T01:59:19;1.75;;;0.90;;
15637;SDS011;26604;53.596;10.042;2022-07-29T02:01:48;1.77;;;0.82;;
15637;SDS011;26604;53.596;10.042;2022-07-29T02:04:19;2.63;;;1.00;;
15637;SDS011;26604;53.596;10.042;2022-07-29T02:06:47;1.42;;;1.13;;
15637;SDS011;26604;53.596;10.042;2022-07-29T02:09:17;1.23;;;0.73;;
15637;SDS011;26604;53.596;10.042;2022-07-29T02:11:47;3.10;;;0.93;;
15637;SDS011;26604;53.596;10.042;2022-07-29T02:14:19;1.88;;;1.00;;
15637;SDS011;26604;53.596;10.042;2022-07-29T02:16:48;1.27;;;0.82;;
15637;SDS011;26604;53.596;10.042;2022-07-29T02:19:19;2.10;;;0.95;;
15637;SDS011;26604;53.596;10.042;2022-07-29T02:21:50;1.50;;;0.95;;
15637;SDS011;26604;53.596;10.042;2022-07-29T02:24:19;1.05;;;0.85;;
15637;SDS011;26604;53.596;10.042;2022-07-29T02:26:48;1.30;;;0.90;;
15637;SDS011;26604;53.596;10.042;2022-07-29T02:29:17;1.10;;;0.80;;
15637;SDS011;26604;53.596;10.042;2022-07-29T02:31:49;1.48;;;1.05;;
15637;SDS011;26604;53.596;10.042;2022-07-29T02:34:18;1.70;;;1.17;;
15637;SDS011;26604;53.596;10.042;2022-07-29T02:36:46;3.10;;;0.95;;
15637;SDS011;26604;53.596;10.042;2022-07-29T02:39:15;2.78;;;1.23;;
15637;SDS011;26604;53.596;10.042;2022-07-29T02:41:45;3.88;;;1.35;;
15637;SDS011;26604;53.596;10.042;2022-07-29T02:44:15;3.05;;;1.30;;
15637;SDS011;26604;53.596;10.042;2022-07-29T02:46:48;2.42;;;1.08;;
15637;SDS011;26604;53.596;10.042;2022-07-29T02:49:18;3.38;;;1.08;;
15637;SDS011;26604;53.596;10.042;2022-07-29T02:51:58;3.22;;;1.15;;
15637;SDS011;26604;53.596;10.042;2022-07-29T02:54:29;1.80;;;1.17;;
15637;SDS011;26604;53.596;10.042;2022-07-29T02:57:06;2.03;;;1.10;;
15637;SDS011;26604;53.596;10.042;2022-07-29T02:59:40;1.10;;;0.95;;
15637;SDS011;26604;53.596;10.042;2022-07-29T03:02:11;2.08;;;1.20;;
15637;SDS011;26604;53.596;10.042;2022-07-29T03:04:41;1.45;;;1.10;;
15637;SDS011;26604;53.596;10.042;2022-07-29T03:07:10;1.60;;;1.20;;
15637;SDS011;26604;53.596;10.042;2022-07-29T03:09:40;1.58;;;0.90;;
15637;SDS011;26604;53.596;10.042;2022-07-29T03:12:08;2.17;;;1.23;;
15637;SDS011;26604;53.596;10.042;2022-07-29T03:14:35;1.58;;;1.02;;
15637;SDS011;26604;53.596;10.042;2022-07-29T03:17:03;4.13;;;1.20;;
15637;SDS011;26604;53.596;10.042;2022-07-29T03:19:32;2.22;;;1.10;;
15637;SDS011;26604;53.596;10.042;2022-07-29T03:21:59;1.67;;;1.05;;
15637;SDS011;26604;53.596;10.042;2022-07-29T03:24:27;1.42;;;1.08;;
15637;SDS011;26604;53.596;10.042;2022-07-29T03:26:57;2.45;;;1.00;;
15637;SDS011;26604;53.596;10.042;2022-07-29T03:29:25;2.03;;;1.23;;
15637;SDS011;26604;53.596;10.042;2022-07-29T03:31:52;2.38;;;0.88;;
15637;SDS011;26604;53.596;10.042;2022-07-29T03:34:19;2.25;;;1.00;;
15637;SDS011;26604;53.596;10.042;2022-07-29T03:36:48;2.45;;;1.40;;
15637;SDS011;26604;53.596;10.042;2022-07-29T03:39:17;2.67;;;1.23;;
15637;SDS011;26604;53.596;10.042;2022-07-29T03:41:47;2.60;;;1.15;;
15637;SDS011;26604;53.596;10.042;2022-07-29T03:44:16;3.03;;;1.25;;
15637;SDS011;26604;53.596;10.042;2022-07-29T03:46:45;2.17;;;1.20;;
15637;SDS011;26604;53.596;10.042;2022-07-29T03:49:14;2.42;;;1.30;;
15637;SDS011;26604;53.596;10.042;2022-07-29T03:51:42;2.67;;;1.40;;
15637;SDS011;26604;53.596;10.042;2022-07-29T03:54:11;4.70;;;1.70;;
15637;SDS011;26604;53.596;10.042;2022-07-29T03:56:39;5.50;;;1.38;;
15637;SDS011;26604;53.596;10.042;2022-07-29T03:59:09;5.53;;;1.83;;
15637;SDS011;26604;53.596;10.042;2022-07-29T04:01:37;3.92;;;1.40;;
15637;SDS011;26604;53.596;10.042;2022-07-29T04:04:05;2.40;;;1.20;;
15637;SDS011;26604;53.596;10.042;2022-07-29T04:06:37;2.13;;;1.30;;
15637;SDS011;26604;53.596;10.042;2022-07-29T04:09:05;5.40;;;1.33;;
15637;SDS011;26604;53.596;10.042;2022-07-29T04:11:34;1.88;;;1.17;;
15637;SDS011;26604;53.596;10.042;2022-07-29T04:14:01;2.30;;;0.90;;
15637;SDS011;26604;53.596;10.042;2022-07-29T04:16:28;2.25;;;1.38;;
15637;SDS011;26604;53.596;10.042;2022-07-29T04:18:55;1.95;;;1.30;;
15637;SDS011;26604;53.596;10.042;2022-07-29T04:21:22;2.00;;;1.33;;
15637;SDS011;26604;53.596;10.042;2022-07-29T04:23:49;3.17;;;1.00;;
15637;SDS011;26604;53.596;10.042;2022-07-29T04:26:16;2.45;;;1.10;;
15637;SDS011;26604;53.596;10.042;2022-07-29T04:28:45;1.92;;;1.20;;
15637;SDS011;26604;53.596;10.042;2022-07-29T04:31:12;2.78;;;1.20;;
15637;SDS011;26604;53.596;10.042;2022-07-29T04:33:39;3.00;;;1.38;;
15637;SDS011;26604;53.596;10.042;2022-07-29T04:36:06;2.25;;;1.20;;
15637;SDS011;26604;53.596;10.042;2022-07-29T04:38:33;1.92;;;0.95;;
15637;SDS011;26604;53.596;10.042;2022-07-29T04:41:00;2.08;;;1.20;;
15637;SDS011;26604;53.596;10.042;2022-07-29T04:43:27;2.17;;;1.30;;
15637;SDS011;26604;53.596;10.042;2022-07-29T04:45:55;3.17;;;1.30;;
15637;SDS011;26604;53.596;10.042;2022-07-29T04:48:22;1.38;;;1.20;;
15637;SDS011;26604;53.596;10.042;2022-07-29T04:50:49;2.35;;;1.30;;
15637;SDS011;26604;53.596;10.042;2022-07-29T04:53:16;3.00;;;1.48;;
15637;SDS011;26604;53.596;10.042;2022-07-29T04:55:43;1.98;;;1.10;;
15637;SDS011;26604;53.596;10.042;2022-07-29T04:58:10;3.17;;;1.70;;
15637;SDS011;26604;53.596;10.042;2022-07-29T05:00:37;1.52;;;1.00;;
15637;SDS011;26604;53.596;10.042;2022-07-29T05:03:07;2.47;;;1.02;;
15637;SDS011;26604;53.596;10.042;2022-07-29T05:05:34;2.33;;;1.35;;
15637;SDS011;26604;53.596;10.042;2022-07-29T05:08:01;3.53;;;1.40;;
15637;SDS011;26604;53.596;10.042;2022-07-29T05:10:27;2.15;;;1.27;;
15637;SDS011;26604;53.596;10.042;2022-07-29T05:12:54;2.00;;;0.90;;
15637;SDS011;26604;53.596;10.042;2022-07-29T05:15:21;2.70;;;1.27;;
15637;SDS011;26604;53.596;10.042;2022-07-29T05:17:48;1.73;;;1.17;;
15637;SDS011;26604;53.596;10.042;2022-07-29T05:20:16;2.00;;;1.10;;
15637;SDS011;26604;53.596;10.042;2022-07-29T05:22:44;1.63;;;1.25;;
15637;SDS011;26604;53.596;10.042;2022-07-29T05:25:10;1.38;;;0.93;;
15637;SDS011;26604;53.596;10.042;2022-07-29T05:27:37;2.95;;;1.20;;
15637;SDS011;26604;53.596;10.042;2022-07-29T05:30:05;2.80;;;1.38;;
15637;SDS011;26604;53.596;10.042;2022-07-29T05:32:32;2.15;;;1.05;;
15637;SDS011;26604;53.596;10.042;2022-07-29T05:34:59;2.60;;;1.27;;
15637;SDS011;26604;53.596;10.042;2022-07-29T05:37:28;1.67;;;1.30;;
15637;SDS011;26604;53.596;10.042;2022-07-29T05:39:54;2.08;;;1.30;;
15637;SDS011;26604;53.596;10.042;2022-07-29T05:42:21;2.42;;;1.33;;
15637;SDS011;26604;53.596;10.042;2022-07-29T05:44:48;2.58;;;1.30;;
15637;SDS011;26604;53.596;10.042;2022-07-29T05:47:15;2.95;;;1.30;;
15637;SDS011;26604;53.596;10.042;2022-07-29T05:49:42;1.95;;;1.20;;
15637;SDS011;26604;53.596;10.042;2022-07-29T05:52:09;2.95;;;1.30;;
15637;SDS011;26604;53.596;10.042;2022-07-29T05:54:39;2.65;;;1.40;;
15637;SDS011;26604;53.596;10.042;2022-07-29T05:57:06;3.13;;;1.52;;
15637;SDS011;26604;53.596;10.042;2022-07-29T05:59:35;2.70;;;1.20;;
15637;SDS011;26604;53.596;10.042;2022-07-29T06:02:03;4.10;;;1.38;;
15637;SDS011;26604;53.596;10.042;2022-07-29T06:04:31;2.42;;;1.40;;
15637;SDS011;26604;53.596;10.042;2022-07-29T06:06:58;1.70;;;0.95;;
15637;SDS011;26604;53.596;10.042;2022-07-29T06:09:25;1.42;;;1.17;;
15637;SDS011;26604;53.596;10.042;2022-07-29T06:11:53;4.13;;;1.20;;
15637;SDS011;26604;53.596;10.042;2022-07-29T06:14:20;2.60;;;1.40;;
15637;SDS011;26604;53.596;10.042;2022-07-29T06:16:47;3.03;;;1.70;;
15637;SDS011;26604;53.596;10.042;2022-07-29T06:19:14;2.60;;;1.50;;
15637;SDS011;26604;53.596;10.042;2022-07-29T06:21:41;2.70;;;1.33;;
15637;SDS011;26604;53.596;10.042;2022-07-29T06:24:08;3.92;;;1.52;;
15637;SDS011;26604;53.596;10.042;2022-07-29T06:26:37;2.58;;;1.30;;
15637;SDS011;26604;53.596;10.042;2022-07-29T06:29:05;2.35;;;1.40;;
15637;SDS011;26604;53.596;10.042;2022-07-29T06:31:33;2.28;;;1.30;;
15637;SDS011;26604;53.596;10.042;2022-07-29T06:34:00;3.50;;;1.50;;
15637;SDS011;26604;53.596;10.042;2022-07-29T06:36:27;1.60;;;1.10;;
15637;SDS011;26604;53.596;10.042;2022-07-29T06:38:54;2.63;;;1.70;;
15637;SDS011;26604;53.596;10.042;2022-07-29T06:41:21;3.30;;;1.33;;
15637;SDS011;26604;53.596;10.042;2022-07-29T06:43:48;2.38;;;1.20;;
15637;SDS011;26604;53.596;10.042;2022-07-29T06:46:18;4.80;;;1.50;;
15637;SDS011;26604;53.596;10.042;2022-07-29T06:48:46;1.65;;;1.00;;
15637;SDS011;26604;53.596;10.042;2022-07-29T06:51:13;6.53;;;1.75;;
15637;SDS011;26604;53.596;10.042;2022-07-29T06:53:41;3.70;;;1.30;;
15637;SDS011;26604;53.596;10.042;2022-07-29T06:56:08;4.07;;;1.17;;
15637;SDS011;26604;53.596;10.042;2022-07-29T06:58:35;3.22;;;1.40;;
15637;SDS011;26604;53.596;10.042;2022-07-29T07:01:03;2.95;;;1.30;;
15637;SDS011;26604;53.596;10.042;2022-07-29T07:03:32;2.38;;;1.30;;
15637;SDS011;26604;53.596;10.042;2022-07-29T07:06:00;3.97;;;1.60;;
15637;SDS011;26604;53.596;10.042;2022-07-29T07:08:26;1.73;;;1.40;;
15637;SDS011;26604;53.596;10.042;2022-07-29T07:10:53;2.58;;;1.60;;
15637;SDS011;26604;53.596;10.042;2022-07-29T07:13:22;1.88;;;1.23;;
15637;SDS011;26604;53.596;10.042;2022-07-29T07:15:49;2.70;;;1.30;;
15637;SDS011;26604;53.596;10.042;2022-07-29T07:18:17;4.10;;;1.63;;
15637;SDS011;26604;53.596;10.042;2022-07-29T07:20:46;4.05;;;1.58;;
15637;SDS011;26604;53.596;10.042;2022-07-29T07:23:12;2.50;;;1.35;;
15637;SDS011;26604;53.596;10.042;2022-07-29T07:25:39;2.55;;;1.42;;
15637;SDS011;26604;53.596;10.042;2022-07-29T07:28:07;3.55;;;1.40;;
15637;SDS011;26604;53.596;10.042;2022-07-29T07:30:33;1.90;;;1.38;;
15637;SDS011;26604;53.596;10.042;2022-07-29T07:33:00;2.45;;;1.20;;
15637;SDS011;26604;53.596;10.042;2022-07-29T07:35:27;6.03;;;1.48;;
15637;SDS011;26604;53.596;10.042;2022-07-29T07:37:56;3.97;;;1.40;;
15637;SDS011;26604;53.596;10.042;2022-07-29T07:40:24;5.93;;;1.75;;
15637;SDS011;26604;53.596;10.042;2022-07-29T07:42:51;6.93;;;1.75;;
15637;SDS011;26604;53.596;10.042;2022-07-29T07:45:18;6.40;;;1.52;;
15637;SDS011;26604;53.596;10.042;2022-07-29T07:47:45;5.60;;;1.42;;
15637;SDS011;26604;53.596;10.042;2022-07-29T07:50:11;4.50;;;1.73;;
15637;SDS011;26604;53.596;10.042;2022-07-29T07:52:48;3.03;;;1.50;;
15637;SDS011;26604;53.596;10.042;2022-07-29T07:55:18;4.72;;;1.67;;
15637;SDS011;26604;53.596;10.042;2022-07-29T07:57:45;4.22;;;1.40;;
15637;SDS011;26604;53.596;10.042;2022-07-29T08:00:13;5.13;;;1.58;;
15637;SDS011;26604;53.596;10.042;2022-07-29T08:02:41;1.58;;;1.10;;
15637;SDS011;26604;53.596;10.042;2022-07-29T08:05:10;3.05;;;1.50;;
15637;SDS011;26604;53.596;10.042;2022-07-29T08:07:41;4.40;;;1.50;;
15637;SDS011;26604;53.596;10.042;2022-07-29T08:10:08;3.92;;;1.40;;
15637;SDS011;26604;53.596;10.042;2022-07-29T08:12:37;2.70;;;1.63;;
15637;SDS011;26604;53.596;10.042;2022-07-29T08:15:04;4.10;;;1.40;;
15637;SDS011;26604;53.596;10.042;2022-07-29T08:17:32;4.28;;;1.67;;
15637;SDS011;26604;53.596;10.042;2022-07-29T08:20:00;4.20;;;1.50;;
15637;SDS011;26604;53.596;10.042;2022-07-29T08:22:27;2.85;;;1.55;;
15637;SDS011;26604;53.596;10.042;2022-07-29T08:24:54;4.55;;;1.60;;
15637;SDS011;26604;53.596;10.042;2022-07-29T08:27:21;5.25;;;1.73;;
15637;SDS011;26604;53.596;10.042;2022-07-29T08:29:50;4.13;;;1.58;;
15637;SDS011;26604;53.596;10.042;2022-07-29T08:32:17;3.78;;;1.30;;
15637;SDS011;26604;53.596;10.042;2022-07-29T08:34:43;3.22;;;1.60;;
15637;SDS011;26604;53.596;10.042;2022-07-29T08:37:11;2.30;;;1.40;;
15637;SDS011;26604;53.596;10.042;2022-07-29T08:39:38;1.55;;;1.40;;
15637;SDS011;26604;53.596;10.042;2022-07-29T08:42:06;3.05;;;1.58;;
15637;SDS011;26604;53.596;10.042;2022-07-29T08:44:33;5.32;;;1.75;;
15637;SDS011;26604;53.596;10.042;2022-07-29T08:47:02;5.00;;;1.70;;
15637;SDS011;26604;53.596;10.042;2022-07-29T08:49:29;2.90;;;1.55;;
15637;SDS011;26604;53.596;10.042;2022-07-29T08:51:57;2.60;;;1.60;;
15637;SDS011;26604;53.596;10.042;2022-07-29T08:54:24;5.45;;;1.80;;
15637;SDS011;26604;53.596;10.042;2022-07-29T08:56:51;4.40;;;1.67;;
15637;SDS011;26604;53.596;10.042;2022-07-29T08:59:19;3.97;;;1.67;;
15637;SDS011;26604;53.596;10.042;2022-07-29T09:01:48;5.68;;;1.67;;
15637;SDS011;26604;53.596;10.042;2022-07-29T09:04:20;5.05;;;1.48;;
15637;SDS011;26604;53.596;10.042;2022-07-29T09:06:49;4.03;;;1.60;;
15637;SDS011;26604;53.596;10.042;2022-07-29T09:09:19;4.32;;;1.65;;
15637;SDS011;26604;53.596;10.042;2022-07-29T09:11:46;7.90;;;1.70;;
15637;SDS011;26604;53.596;10.042;2022-07-29T09:14:13;3.53;;;1.50;;
15637;SDS011;26604;53.596;10.042;2022-07-29T09:16:48;2.55;;;1.63;;
15637;SDS011;26604;53.596;10.042;2022-07-29T09:19:21;3.25;;;1.38;;
15637;SDS011;26604;53.596;10.042;2022-07-29T09:21:50;4.20;;;1.80;;
15637;SDS011;26604;53.596;10.042;2022-07-29T09:24:27;3.90;;;1.73;;
15637;SDS011;26604;53.596;10.042;2022-07-29T09:27:07;3.28;;;1.63;;
15637;SDS011;26604;53.596;10.042;2022-07-29T09:29:46;3.28;;;1.88;;
15637;SDS011;26604;53.596;10.042;2022-07-29T09:32:13;4.32;;;1.40;;
15637;SDS011;26604;53.596;10.042;2022-07-29T09:34:41;3.60;;;1.40;;
15637;SDS011;26604;53.596;10.042;2022-07-29T09:37:08;5.32;;;1.40;;
15637;SDS011;26604;53.596;10.042;2022-07-29T09:39:37;9.60;;;2.15;;
15637;SDS011;26604;53.596;10.042;2022-07-29T09:42:10;3.05;;;1.40;;
15637;SDS011;26604;53.596;10.042;2022-07-29T09:44:41;4.35;;;1.63;;
15637;SDS011;26604;53.596;10.042;2022-07-29T09:47:09;4.95;;;1.50;;
15637;SDS011;26604;53.596;10.042;2022-07-29T09:49:51;5.63;;;1.40;;
15637;SDS011;26604;53.596;10.042;2022-07-29T09:52:19;3.78;;;1.50;;
15637;SDS011;26604;53.596;10.042;2022-07-29T09:54:46;5.10;;;1.35;;
15637;SDS011;26604;53.596;10.042;2022-07-29T09:57:24;4.30;;;1.80;;
15637;SDS011;26604;53.596;10.042;2022-07-29T09:59:58;5.80;;;2.33;;
15637;SDS011;26604;53.596;10.042;2022-07-29T10:02:29;3.35;;;1.60;;
15637;SDS011;26604;53.596;10.042;2022-07-29T10:05:00;3.63;;;1.35;;
15637;SDS011;26604;53.596;10.042;2022-07-29T10:07:29;7.50;;;1.52;;
15637;SDS011;26604;53.596;10.042;2022-07-29T10:10:10;4.32;;;1.58;;
15637;SDS011;26604;53.596;10.042;2022-07-29T10:12:53;5.38;;;1.70;;
15637;SDS011;26604;53.596;10.042;2022-07-29T10:15:22;4.70;;;1.38;;
15637;SDS011;26604;53.596;10.042;2022-07-29T10:17:50;5.55;;;1.33;;
15637;SDS011;26604;53.596;10.042;2022-07-29T10:20:19;3.08;;;1.13;;
15637;SDS011;26604;53.596;10.042;2022-07-29T10:22:47;2.70;;;1.30;;
15637;SDS011;26604;53.596;10.042;2022-07-29T10:25:14;4.57;;;1.50;;
15637;SDS011;26604;53.596;10.042;2022-07-29T10:27:42;5.50;;;1.70;;
15637;SDS011;26604;53.596;10.042;2022-07-29T10:30:10;1.75;;;1.08;;
15637;SDS011;26604;53.596;10.042;2022-07-29T10:32:51;4.75;;;2.33;;
15637;SDS011;26604;53.596;10.042;2022-07-29T10:35:30;13.75;;;2.63;;
15637;SDS011;26604;53.596;10.042;2022-07-29T10:38:21;3.75;;;1.52;;
15637;SDS011;26604;53.596;10.042;2022-07-29T10:44:23;4.30;;;1.55;;
15637;SDS011;26604;53.596;10.042;2022-07-29T10:46:52;4.43;;;1.60;;
15637;SDS011;26604;53.596;10.042;2022-07-29T10:49:20;3.47;;;1.40;;
15637;SDS011;26604;53.596;10.042;2022-07-29T10:51:58;4.60;;;1.45;;
15637;SDS011;26604;53.596;10.042;2022-07-29T10:54:36;4.70;;;1.60;;
15637;SDS011;26604;53.596;10.042;2022-07-29T10:57:12;3.20;;;1.40;;
15637;SDS011;26604;53.596;10.042;2022-07-29T10:59:40;3.88;;;1.33;;
15637;SDS011;26604;53.596;10.042;2022-07-29T11:05:08;2.88;;;1.40;;
15637;SDS011;26604;53.596;10.042;2022-07-29T11:07:40;4.30;;;1.48;;
15637;SDS011;26604;53.596;10.042;2022-07-29T11:14:05;7.30;;;1.42;;
15637;SDS011;26604;53.596;10.042;2022-07-29T11:16:57;3.63;;;1.45;;
15637;SDS011;26604;53.596;10.042;2022-07-29T11:19:28;4.20;;;1.50;;
15637;SDS011;26604;53.596;10.042;2022-07-29T11:21:56;4.18;;;1.38;;
15637;SDS011;26604;53.596;10.042;2022-07-29T11:24:25;6.80;;;1.23;;
15637;SDS011;26604;53.596;10.042;2022-07-29T11:27:10;2.90;;;1.45;;
15637;SDS011;26604;53.596;10.042;2022-07-29T11:29:39;4.00;;;1.42;;
15637;SDS011;26604;53.596;10.042;2022-07-29T11:32:13;4.47;;;1.27;;
15637;SDS011;26604;53.596;10.042;2022-07-29T11:34:42;4.15;;;1.52;;
15637;SDS011;26604;53.596;10.042;2022-07-29T11:40:17;3.38;;;1.25;;
15637;SDS011;26604;53.596;10.042;2022-07-29T11:42:47;7.53;;;1.50;;
15637;SDS011;26604;53.596;10.042;2022-07-29T11:45:20;8.32;;;1.50;;
15637;SDS011;26604;53.596;10.042;2022-07-29T11:47:52;11.48;;;2.30;;
15637;SDS011;26604;53.596;10.042;2022-07-29T11:50:33;2.95;;;1.42;;
15637;SDS011;26604;53.596;10.042;2022-07-29T11:53:02;5.05;;;1.42;;
15637;SDS011;26604;53.596;10.042;2022-07-29T11:55:36;6.70;;;1.27;;
15637;SDS011;26604;53.596;10.042;2022-07-29T11:58:04;3.80;;;1.52;;
15637;SDS011;26604;53.596;10.042;2022-07-29T12:00:32;8.07;;;1.60;;
15637;SDS011;26604;53.596;10.042;2022-07-29T12:03:01;4.43;;;1.73;;
15637;SDS011;26604;53.596;10.042;2022-07-29T12:05:30;4.72;;;2.20;;
15637;SDS011;26604;53.596;10.042;2022-07-29T12:08:06;13.18;;;6.75;;
15637;SDS011;26604;53.596;10.042;2022-07-29T12:10:34;11.48;;;5.40;;
15637;SDS011;26604;53.596;10.042;2022-07-29T12:13:03;16.63;;;7.07;;
15637;SDS011;26604;53.596;10.042;2022-07-29T12:15:30;21.10;;;6.68;;
15637;SDS011;26604;53.596;10.042;2022-07-29T12:17:57;14.18;;;5.63;;
15637;SDS011;26604;53.596;10.042;2022-07-29T12:20:25;11.27;;;5.55;;
15637;SDS011;26604;53.596;10.042;2022-07-29T12:22:53;10.63;;;4.68;;
15637;SDS011;26604;53.596;10.042;2022-07-29T12:25:22;12.75;;;4.78;;
15637;SDS011;26604;53.596;10.042;2022-07-29T12:28:01;8.93;;;4.63;;
15637;SDS011;26604;53.596;10.042;2022-07-29T12:30:37;9.95;;;4.78;;
15637;SDS011;26604;53.596;10.042;2022-07-29T12:33:16;12.18;;;5.32;;
15637;SDS011;26604;53.596;10.042;2022-07-29T12:35:47;12.70;;;4.97;;
15637;SDS011;26604;53.596;10.042;2022-07-29T12:38:16;14.18;;;4.70;;
15637;SDS011;26604;53.596;10.042;2022-07-29T12:40:44;10.82;;;4.07;;
15637;SDS011;26604;53.596;10.042;2022-07-29T12:43:14;12.13;;;4.70;;
15637;SDS011;26604;53.596;10.042;2022-07-29T12:45:45;8.27;;;4.63;;
15637;SDS011;26604;53.596;10.042;2022-07-29T12:48:13;11.88;;;4.13;;
15637;SDS011;26604;53.596;10.042;2022-07-29T12:50:56;8.70;;;3.53;;
15637;SDS011;26604;53.596;10.042;2022-07-29T12:53:26;7.75;;;3.45;;
15637;SDS011;26604;53.596;10.042;2022-07-29T12:55:54;8.20;;;3.15;;
15637;SDS011;26604;53.596;10.042;2022-07-29T12:58:33;7.88;;;3.08;;
15637;SDS011;26604;53.596;10.042;2022-07-29T13:01:03;10.45;;;3.60;;
15637;SDS011;26604;53.596;10.042;2022-07-29T13:03:43;9.23;;;2.80;;
15637;SDS011;26604;53.596;10.042;2022-07-29T13:06:26;7.20;;;2.58;;
15637;SDS011;26604;53.596;10.042;2022-07-29T13:09:01;7.57;;;2.67;;
15637;SDS011;26604;53.596;10.042;2022-07-29T13:11:30;5.88;;;2.80;;
15637;SDS011;26604;53.596;10.042;2022-07-29T13:13:59;7.72;;;2.47;;
15637;SDS011;26604;53.596;10.042;2022-07-29T13:16:26;3.40;;;1.95;;
15637;SDS011;26604;53.596;10.042;2022-07-29T13:19:03;9.85;;;2.40;;
15637;SDS011;26604;53.596;10.042;2022-07-29T13:21:34;6.85;;;2.20;;
15637;SDS011;26604;53.596;10.042;2022-07-29T13:24:02;4.05;;;2.08;;
15637;SDS011;26604;53.596;10.042;2022-07-29T13:26:29;5.18;;;2.17;;
15637;SDS011;26604;53.596;10.042;2022-07-29T13:28:56;6.43;;;2.10;;
15637;SDS011;26604;53.596;10.042;2022-07-29T13:31:24;3.95;;;1.90;;
15637;SDS011;26604;53.596;10.042;2022-07-29T13:33:52;6.90;;;2.08;;
15637;SDS011;26604;53.596;10.042;2022-07-29T13:36:18;8.23;;;2.13;;
15637;SDS011;26604;53.596;10.042;2022-07-29T13:38:45;6.40;;;1.70;;
15637;SDS011;26604;53.596;10.042;2022-07-29T13:41:12;3.72;;;1.98;;
15637;SDS011;26604;53.596;10.042;2022-07-29T13:43:39;6.13;;;2.03;;
15637;SDS011;26604;53.596;10.042;2022-07-29T13:46:06;8.55;;;2.00;;
15637;SDS011;26604;53.596;10.042;2022-07-29T13:48:34;8.18;;;2.03;;
15637;SDS011;26604;53.596;10.042;2022-07-29T13:51:01;2.58;;;1.40;;
15637;SDS011;26604;53.596;10.042;2022-07-29T13:53:28;3.40;;;1.63;;
15637;SDS011;26604;53.596;10.042;2022-07-29T13:55:55;3.80;;;1.60;;
15637;SDS011;26604;53.596;10.042;2022-07-29T13:58:22;6.65;;;1.60;;
15637;SDS011;26604;53.596;10.042;2022-07-29T14:00:49;2.28;;;1.15;;
15637;SDS011;26604;53.596;10.042;2022-07-29T14:03:16;3.47;;;1.60;;
15637;SDS011;26604;53.596;10.042;2022-07-29T14:05:44;4.90;;;1.55;;
15637;SDS011;26604;53.596;10.042;2022-07-29T14:08:11;3.38;;;1.58;;
15637;SDS011;26604;53.596;10.042;2022-07-29T14:10:38;4.03;;;1.77;;
15637;SDS011;26604;53.596;10.042;2022-07-29T14:13:05;4.40;;;1.88;;
15637;SDS011;26604;53.596;10.042;2022-07-29T14:15:32;3.22;;;1.65;;
15637;SDS011;26604;53.596;10.042;2022-07-29T14:17:59;11.25;;;1.80;;
15637;SDS011;26604;53.596;10.042;2022-07-29T14:20:26;6.10;;;1.80;;
15637;SDS011;26604;53.596;10.042;2022-07-29T14:22:56;6.43;;;2.15;;
15637;SDS011;26604;53.596;10.042;2022-07-29T14:25:23;4.93;;;2.05;;
15637;SDS011;26604;53.596;10.042;2022-07-29T14:27:50;11.00;;;2.47;;
15637;SDS011;26604;53.596;10.042;2022-07-29T14:30:18;86.53;;;9.35;;
15637;SDS011;26604;53.596;10.042;2022-07-29T14:32:45;70.95;;;8.85;;
15637;SDS011;26604;53.596;10.042;2022-07-29T14:35:12;76.55;;;9.18;;
15637;SDS011;26604;53.596;10.042;2022-07-29T14:37:39;94.20;;;9.27;;
15637;SDS011;26604;53.596;10.042;2022-07-29T14:40:08;142.40;;;18.65;;
15637;SDS011;26604;53.596;10.042;2022-07-29T14:42:36;271.27;;;35.15;;
15637;SDS011;26604;53.596;10.042;2022-07-29T14:45:04;157.25;;;28.60;;
15637;SDS011;26604;53.596;10.042;2022-07-29T14:47:32;212.93;;;26.90;;
15637;SDS011;26604;53.596;10.042;2022-07-29T14:49:59;328.50;;;36.10;;
15637;SDS011;26604;53.596;10.042;2022-07-29T14:52:26;317.38;;;37.28;;
15637;SDS011;26604;53.596;10.042;2022-07-29T14:54:52;407.13;;;51.47;;
15637;SDS011;26604;53.596;10.042;2022-07-29T14:57:21;335.10;;;41.47;;
15637;SDS011;26604;53.596;10.042;2022-07-29T14:59:48;459.40;;;56.85;;